Saxaren — SKHW — position and weather

sailwx.info

Track history (hours):
 
Tides and Currents Weather Stations Pressure Air Temp Water Temp Dewpoint Dewpoint Depression Visibility Wind Speed Wind Dir Waves Ship Positions

Saxaren

Last reported at 2015-May-06 11:33 UTC. Time now 2015-May-06 12:30 UTC.
Position N 59°20' E 018°05'.

Length 38 m; draft 1.8 m.

Type: Passenger vessel. MMSI: 265512110.

Date/timePositionNaut miles runAvg speedWind from/ knotsBaromVisibWave heightAir tempDewpointWater temp
2015-May-06 11:33N 59°20' E 018°05'0 0.0
2015-May-06 10:33N 59°20' E 018°05'0 0.0
2015-May-06 09:33N 59°20' E 018°05'0 0.0
2015-May-06 08:33N 59°20' E 018°05'0 0.0
2015-May-06 07:33N 59°20' E 018°05'0 0.0
2015-May-06 06:33N 59°20' E 018°05'0 0.0
2015-May-06 05:33N 59°20' E 018°05'0 0.0
2015-May-06 04:33N 59°20' E 018°05'0 0.0
2015-May-06 03:33N 59°20' E 018°05'0 0.0
2015-May-06 02:32N 59°20' E 018°05'0 0.0
2015-May-06 01:33N 59°20' E 018°05'0 0.0
2015-May-06 00:33N 59°20' E 018°05'0 0.0
2015-May-05 23:33N 59°20' E 018°05'0 0.0
2015-May-05 22:33N 59°20' E 018°05'0 0.0
2015-May-05 21:33N 59°20' E 018°05'0 0.0
2015-May-05 20:33N 59°20' E 018°05'0 0.0
2015-May-05 19:33N 59°20' E 018°05'0 0.0
2015-May-05 18:33N 59°20' E 018°05'0 0.0
2015-May-05 17:33N 59°20' E 018°05'0 0.0
2015-May-05 16:33N 59°20' E 018°05'0 0.0
2015-May-05 15:33N 59°20' E 018°05'0 0.0
2015-May-05 14:33N 59°20' E 018°05'0 0.0
2015-May-05 13:33N 59°20' E 018°05'0 0.0
2015-May-05 12:33N 59°20' E 018°05'0 0.0
2015-May-05 11:33N 59°20' E 018°05'0 0.0
2015-May-05 10:33N 59°20' E 018°05'0 0.0
2015-May-05 09:33N 59°20' E 018°05'0 0.0
2015-May-05 08:33N 59°20' E 018°05'0 0.0
2015-May-05 07:33N 59°20' E 018°05'0 0.0
2015-May-05 06:33N 59°20' E 018°05'0 0.0
2015-May-05 05:33N 59°20' E 018°05'0 0.0
2015-May-05 04:33N 59°20' E 018°05'0 0.0
2015-May-05 03:33N 59°20' E 018°05'0 0.0
2015-May-05 02:33N 59°20' E 018°05'0 0.0
2015-May-05 01:33N 59°20' E 018°05'0 0.0
2015-May-05 00:33N 59°20' E 018°05'0 0.0
2015-May-04 23:33N 59°20' E 018°05'0 0.0
2015-May-04 22:33N 59°20' E 018°05'0 0.0
2015-May-04 21:33N 59°20' E 018°05'0 0.0
2015-May-04 20:33N 59°20' E 018°05'0 0.0
2015-May-04 19:33N 59°20' E 018°05'0 0.0
2015-May-04 18:33N 59°20' E 018°05'0 0.0
2015-May-04 17:33N 59°20' E 018°05'0 0.0
2015-May-04 16:33N 59°20' E 018°05'0 0.0
2015-May-04 15:33N 59°20' E 018°05'0 0.0
2015-May-04 14:33N 59°20' E 018°05'0 0.0
2015-May-04 13:33N 59°20' E 018°05'0 0.0
2015-May-04 12:33N 59°20' E 018°05'0 0.0
2015-May-04 11:33N 59°20' E 018°05'0 0.0
2015-May-04 10:33N 59°20' E 018°05'0 0.0
2015-May-04 09:33N 59°20' E 018°05'0 0.0
2015-May-04 08:33N 59°20' E 018°05'0 0.0
2015-May-04 07:33N 59°20' E 018°05'0 0.0
2015-May-04 06:33N 59°20' E 018°05'0 0.0
2015-May-04 05:33N 59°20' E 018°05'0 0.0
2015-May-04 04:33N 59°20' E 018°05'0 0.0
2015-May-04 03:33N 59°20' E 018°05'0 0.0
2015-May-04 02:33N 59°20' E 018°05'0 0.0
2015-May-04 01:33N 59°20' E 018°05'0 0.0
2015-May-04 00:33N 59°20' E 018°05'0 0.0
2015-May-03 23:33N 59°20' E 018°05'0 0.0
2015-May-03 22:33N 59°20' E 018°05'0 0.0
2015-May-03 21:33N 59°20' E 018°05'0 0.0
2015-May-03 20:33N 59°20' E 018°05'0 0.0
2015-May-03 19:33N 59°20' E 018°05'0 0.0
2015-May-03 18:33N 59°20' E 018°05'0 0.1
2015-May-03 17:33N 59°20' E 018°05'9 6.1
2015-May-03 16:07N 59°16' E 018°21'2 0.1
2015-May-02 07:27N 59°15' E 018°24'0 0.0
2015-May-01 16:23N 59°15' E 018°24'1 0.0
2015-Apr-30 15:32N 59°16' E 018°23'7 0.8
2015-Apr-30 07:25N 59°20' E 018°13'4 5.0
2015-Apr-30 06:33N 59°20' E 018°05'0 0.0
2015-Apr-30 05:33N 59°20' E 018°05'0 0.0
2015-Apr-30 04:33N 59°20' E 018°05'0 0.0
2015-Apr-30 03:33N 59°20' E 018°05'0 0.0
2015-Apr-30 02:33N 59°20' E 018°05'0 0.0
2015-Apr-30 01:33N 59°20' E 018°05'0 0.0
2015-Apr-30 00:33N 59°20' E 018°05'0 0.0
2015-Apr-29 23:33N 59°20' E 018°05'0 0.0
2015-Apr-29 22:33N 59°20' E 018°05'0 0.0
2015-Apr-29 21:33N 59°20' E 018°05'0 0.0
2015-Apr-29 20:33N 59°20' E 018°05'0 0.0
2015-Apr-29 19:33N 59°20' E 018°05'0 0.0
2015-Apr-29 18:33N 59°20' E 018°05'0 0.0
2015-Apr-29 17:33N 59°20' E 018°05'0 0.0
2015-Apr-29 16:33N 59°20' E 018°05'0 0.0
2015-Apr-29 15:33N 59°20' E 018°05'0 0.0
2015-Apr-29 14:33N 59°20' E 018°05'0 0.0
2015-Apr-29 13:33N 59°20' E 018°05'0 0.0
2015-Apr-29 12:33N 59°20' E 018°05'0 0.0
2015-Apr-29 11:33N 59°20' E 018°05'0 0.0
2015-Apr-29 10:33N 59°20' E 018°05'0 0.0
2015-Apr-29 09:33N 59°20' E 018°05'0 0.0
2015-Apr-29 08:33N 59°20' E 018°05'0 0.0
2015-Apr-29 07:33N 59°20' E 018°05'0 0.0
2015-Apr-29 06:33N 59°20' E 018°05'0 0.0
2015-Apr-29 05:33N 59°20' E 018°05'0 0.0
2015-Apr-29 04:33N 59°20' E 018°05'0 0.0
2015-Apr-29 03:33N 59°20' E 018°05'0 0.0
2015-Apr-29 02:33N 59°20' E 018°05'0 0.0
2015-Apr-29 01:33N 59°20' E 018°05'0 0.0
2015-Apr-29 00:33N 59°20' E 018°05'0 0.0
2015-Apr-28 23:33N 59°20' E 018°05'0 0.0
2015-Apr-28 22:33N 59°20' E 018°05'0 0.0
2015-Apr-28 21:33N 59°20' E 018°05'0 0.0
2015-Apr-28 20:33N 59°20' E 018°05'0 0.0
2015-Apr-28 19:33N 59°20' E 018°05'0 0.0
2015-Apr-28 18:33N 59°20' E 018°05'0 0.0
2015-Apr-28 17:33N 59°20' E 018°05'0 0.0
2015-Apr-28 16:33N 59°20' E 018°05'0 0.0
2015-Apr-28 15:33N 59°20' E 018°05'0 0.0
2015-Apr-28 14:33N 59°20' E 018°05'0 0.0
2015-Apr-28 13:33N 59°20' E 018°05'0 0.0
2015-Apr-28 12:33N 59°20' E 018°05'0 0.0
2015-Apr-28 11:33N 59°20' E 018°05'0 0.0
2015-Apr-28 10:33N 59°20' E 018°05'0 0.0
2015-Apr-28 09:33N 59°20' E 018°05'0 0.0
2015-Apr-28 08:33N 59°20' E 018°05'0 0.0
2015-Apr-28 07:33N 59°20' E 018°05'0 0.0
2015-Apr-28 06:33N 59°20' E 018°05'0 0.0
2015-Apr-28 05:33N 59°20' E 018°05'0 0.0
2015-Apr-28 04:33N 59°20' E 018°05'0 0.0
2015-Apr-28 03:33N 59°20' E 018°05'0 0.0
2015-Apr-28 02:33N 59°20' E 018°05'0 0.0
2015-Apr-28 01:33N 59°20' E 018°05'0 0.0
2015-Apr-28 00:33N 59°20' E 018°05'0 0.0
2015-Apr-27 23:33N 59°20' E 018°05'0 0.0
2015-Apr-27 22:33N 59°20' E 018°05'0 0.0
2015-Apr-27 21:33N 59°20' E 018°05'0 0.0
2015-Apr-27 20:33N 59°20' E 018°05'0 0.0
2015-Apr-27 19:33N 59°20' E 018°05'0 0.0
2015-Apr-27 18:33N 59°20' E 018°05'0 0.0
2015-Apr-27 17:33N 59°20' E 018°05'0 0.0
2015-Apr-27 16:33N 59°20' E 018°05'0 0.0
2015-Apr-27 15:33N 59°20' E 018°05'0 0.0
2015-Apr-27 14:33N 59°20' E 018°05'0 0.0
2015-Apr-27 13:33N 59°20' E 018°05'0 0.0
2015-Apr-27 12:33N 59°20' E 018°05'0 0.0
2015-Apr-27 11:33N 59°20' E 018°05'0 0.0
2015-Apr-27 10:33N 59°20' E 018°05'0 0.0
2015-Apr-27 09:33N 59°20' E 018°05'0 0.0
2015-Apr-27 08:33N 59°20' E 018°05'0 0.0
2015-Apr-27 07:33N 59°20' E 018°05'0 0.0
2015-Apr-27 06:33N 59°20' E 018°05'0 0.0
2015-Apr-27 05:33N 59°20' E 018°05'0 0.0
2015-Apr-27 04:33N 59°20' E 018°05'0 0.0
2015-Apr-27 03:33N 59°20' E 018°05'0 0.0
2015-Apr-27 02:33N 59°20' E 018°05'0 0.0
2015-Apr-27 01:33N 59°20' E 018°05'0 0.0
2015-Apr-27 00:33N 59°20' E 018°05'0 0.0
2015-Apr-26 23:33N 59°20' E 018°05'0 0.0
2015-Apr-26 22:33N 59°20' E 018°05'0 0.0
2015-Apr-26 21:33N 59°20' E 018°05'0 0.0
2015-Apr-26 20:33N 59°20' E 018°05'0 0.0
2015-Apr-26 19:33N 59°20' E 018°05'0 0.0
2015-Apr-26 18:33N 59°20' E 018°05'0 0.0
2015-Apr-26 17:33N 59°20' E 018°05'  
Track history (hours):
 
Tides and Currents Weather Stations Pressure Air Temp Water Temp Dewpoint Dewpoint Depression Visibility Wind Speed Wind Dir Waves Ship Positions

Saxaren

Last reported at 2015-May-06 11:33 UTC. Time now 2015-May-06 12:30 UTC.
Position N 59°20' E 018°05'.

Length 38 m; draft 1.8 m.

Type: Passenger vessel. MMSI: 265512110.

Date/timePositionNaut miles runAvg speedWind from/ knotsBaromVisibWave heightAir tempDewpointWater temp
2015-May-06 11:33N 59°20' E 018°05'0 0.0
2015-May-06 10:33N 59°20' E 018°05'0 0.0
2015-May-06 09:33N 59°20' E 018°05'0 0.0
2015-May-06 08:33N 59°20' E 018°05'0 0.0
2015-May-06 07:33N 59°20' E 018°05'0 0.0
2015-May-06 06:33N 59°20' E 018°05'0 0.0
2015-May-06 05:33N 59°20' E 018°05'0 0.0
2015-May-06 04:33N 59°20' E 018°05'0 0.0
2015-May-06 03:33N 59°20' E 018°05'0 0.0
2015-May-06 02:32N 59°20' E 018°05'0 0.0
2015-May-06 01:33N 59°20' E 018°05'0 0.0
2015-May-06 00:33N 59°20' E 018°05'0 0.0
2015-May-05 23:33N 59°20' E 018°05'0 0.0
2015-May-05 22:33N 59°20' E 018°05'0 0.0
2015-May-05 21:33N 59°20' E 018°05'0 0.0
2015-May-05 20:33N 59°20' E 018°05'0 0.0
2015-May-05 19:33N 59°20' E 018°05'0 0.0
2015-May-05 18:33N 59°20' E 018°05'0 0.0
2015-May-05 17:33N 59°20' E 018°05'0 0.0
2015-May-05 16:33N 59°20' E 018°05'0 0.0
2015-May-05 15:33N 59°20' E 018°05'0 0.0
2015-May-05 14:33N 59°20' E 018°05'0 0.0
2015-May-05 13:33N 59°20' E 018°05'0 0.0
2015-May-05 12:33N 59°20' E 018°05'0 0.0
2015-May-05 11:33N 59°20' E 018°05'0 0.0
2015-May-05 10:33N 59°20' E 018°05'0 0.0
2015-May-05 09:33N 59°20' E 018°05'0 0.0
2015-May-05 08:33N 59°20' E 018°05'0 0.0
2015-May-05 07:33N 59°20' E 018°05'0 0.0
2015-May-05 06:33N 59°20' E 018°05'0 0.0
2015-May-05 05:33N 59°20' E 018°05'0 0.0
2015-May-05 04:33N 59°20' E 018°05'0 0.0
2015-May-05 03:33N 59°20' E 018°05'0 0.0
2015-May-05 02:33N 59°20' E 018°05'0 0.0
2015-May-05 01:33N 59°20' E 018°05'0 0.0
2015-May-05 00:33N 59°20' E 018°05'0 0.0
2015-May-04 23:33N 59°20' E 018°05'0 0.0
2015-May-04 22:33N 59°20' E 018°05'0 0.0
2015-May-04 21:33N 59°20' E 018°05'0 0.0
2015-May-04 20:33N 59°20' E 018°05'0 0.0
2015-May-04 19:33N 59°20' E 018°05'0 0.0
2015-May-04 18:33N 59°20' E 018°05'0 0.0
2015-May-04 17:33N 59°20' E 018°05'0 0.0
2015-May-04 16:33N 59°20' E 018°05'0 0.0
2015-May-04 15:33N 59°20' E 018°05'0 0.0
2015-May-04 14:33N 59°20' E 018°05'0 0.0
2015-May-04 13:33N 59°20' E 018°05'0 0.0
2015-May-04 12:33N 59°20' E 018°05'0 0.0
2015-May-04 11:33N 59°20' E 018°05'0 0.0
2015-May-04 10:33N 59°20' E 018°05'0 0.0
2015-May-04 09:33N 59°20' E 018°05'0 0.0
2015-May-04 08:33N 59°20' E 018°05'0 0.0
2015-May-04 07:33N 59°20' E 018°05'0 0.0
2015-May-04 06:33N 59°20' E 018°05'0 0.0
2015-May-04 05:33N 59°20' E 018°05'0 0.0
2015-May-04 04:33N 59°20' E 018°05'0 0.0
2015-May-04 03:33N 59°20' E 018°05'0 0.0
2015-May-04 02:33N 59°20' E 018°05'0 0.0
2015-May-04 01:33N 59°20' E 018°05'0 0.0
2015-May-04 00:33N 59°20' E 018°05'0 0.0
2015-May-03 23:33N 59°20' E 018°05'0 0.0
2015-May-03 22:33N 59°20' E 018°05'0 0.0
2015-May-03 21:33N 59°20' E 018°05'0 0.0
2015-May-03 20:33N 59°20' E 018°05'0 0.0
2015-May-03 19:33N 59°20' E 018°05'0 0.0
2015-May-03 18:33N 59°20' E 018°05'0 0.1
2015-May-03 17:33N 59°20' E 018°05'9 6.1
2015-May-03 16:07N 59°16' E 018°21'2 0.1
2015-May-02 07:27N 59°15' E 018°24'0 0.0
2015-May-01 16:23N 59°15' E 018°24'1 0.0
2015-Apr-30 15:32N 59°16' E 018°23'7 0.8
2015-Apr-30 07:25N 59°20' E 018°13'4 5.0
2015-Apr-30 06:33N 59°20' E 018°05'0 0.0
2015-Apr-30 05:33N 59°20' E 018°05'0 0.0
2015-Apr-30 04:33N 59°20' E 018°05'0 0.0
2015-Apr-30 03:33N 59°20' E 018°05'0 0.0
2015-Apr-30 02:33N 59°20' E 018°05'0 0.0
2015-Apr-30 01:33N 59°20' E 018°05'0 0.0
2015-Apr-30 00:33N 59°20' E 018°05'0 0.0
2015-Apr-29 23:33N 59°20' E 018°05'0 0.0
2015-Apr-29 22:33N 59°20' E 018°05'0 0.0
2015-Apr-29 21:33N 59°20' E 018°05'0 0.0
2015-Apr-29 20:33N 59°20' E 018°05'0 0.0
2015-Apr-29 19:33N 59°20' E 018°05'0 0.0
2015-Apr-29 18:33N 59°20' E 018°05'0 0.0
2015-Apr-29 17:33N 59°20' E 018°05'0 0.0
2015-Apr-29 16:33N 59°20' E 018°05'0 0.0
2015-Apr-29 15:33N 59°20' E 018°05'0 0.0
2015-Apr-29 14:33N 59°20' E 018°05'0 0.0
2015-Apr-29 13:33N 59°20' E 018°05'0 0.0
2015-Apr-29 12:33N 59°20' E 018°05'0 0.0
2015-Apr-29 11:33N 59°20' E 018°05'0 0.0
2015-Apr-29 10:33N 59°20' E 018°05'0 0.0
2015-Apr-29 09:33N 59°20' E 018°05'0 0.0
2015-Apr-29 08:33N 59°20' E 018°05'0 0.0
2015-Apr-29 07:33N 59°20' E 018°05'0 0.0
2015-Apr-29 06:33N 59°20' E 018°05'0 0.0
2015-Apr-29 05:33N 59°20' E 018°05'0 0.0
2015-Apr-29 04:33N 59°20' E 018°05'0 0.0
2015-Apr-29 03:33N 59°20' E 018°05'0 0.0
2015-Apr-29 02:33N 59°20' E 018°05'0 0.0
2015-Apr-29 01:33N 59°20' E 018°05'0 0.0
2015-Apr-29 00:33N 59°20' E 018°05'0 0.0
2015-Apr-28 23:33N 59°20' E 018°05'0 0.0
2015-Apr-28 22:33N 59°20' E 018°05'0 0.0
2015-Apr-28 21:33N 59°20' E 018°05'0 0.0
2015-Apr-28 20:33N 59°20' E 018°05'0 0.0
2015-Apr-28 19:33N 59°20' E 018°05'0 0.0
2015-Apr-28 18:33N 59°20' E 018°05'0 0.0
2015-Apr-28 17:33N 59°20' E 018°05'0 0.0
2015-Apr-28 16:33N 59°20' E 018°05'0 0.0
2015-Apr-28 15:33N 59°20' E 018°05'0 0.0
2015-Apr-28 14:33N 59°20' E 018°05'0 0.0
2015-Apr-28 13:33N 59°20' E 018°05'0 0.0
2015-Apr-28 12:33N 59°20' E 018°05'0 0.0
2015-Apr-28 11:33N 59°20' E 018°05'0 0.0
2015-Apr-28 10:33N 59°20' E 018°05'0 0.0
2015-Apr-28 09:33N 59°20' E 018°05'0 0.0
2015-Apr-28 08:33N 59°20' E 018°05'0 0.0
2015-Apr-28 07:33N 59°20' E 018°05'0 0.0
2015-Apr-28 06:33N 59°20' E 018°05'0 0.0
2015-Apr-28 05:33N 59°20' E 018°05'0 0.0
2015-Apr-28 04:33N 59°20' E 018°05'0 0.0
2015-Apr-28 03:33N 59°20' E 018°05'0 0.0
2015-Apr-28 02:33N 59°20' E 018°05'0 0.0
2015-Apr-28 01:33N 59°20' E 018°05'0 0.0
2015-Apr-28 00:33N 59°20' E 018°05'0 0.0
2015-Apr-27 23:33N 59°20' E 018°05'0 0.0
2015-Apr-27 22:33N 59°20' E 018°05'0 0.0
2015-Apr-27 21:33N 59°20' E 018°05'0 0.0
2015-Apr-27 20:33N 59°20' E 018°05'0 0.0
2015-Apr-27 19:33N 59°20' E 018°05'0 0.0
2015-Apr-27 18:33N 59°20' E 018°05'0 0.0
2015-Apr-27 17:33N 59°20' E 018°05'0 0.0
2015-Apr-27 16:33N 59°20' E 018°05'0 0.0
2015-Apr-27 15:33N 59°20' E 018°05'0 0.0
2015-Apr-27 14:33N 59°20' E 018°05'0 0.0
2015-Apr-27 13:33N 59°20' E 018°05'0 0.0
2015-Apr-27 12:33N 59°20' E 018°05'0 0.0
2015-Apr-27 11:33N 59°20' E 018°05'0 0.0
2015-Apr-27 10:33N 59°20' E 018°05'0 0.0
2015-Apr-27 09:33N 59°20' E 018°05'0 0.0
2015-Apr-27 08:33N 59°20' E 018°05'0 0.0
2015-Apr-27 07:33N 59°20' E 018°05'0 0.0
2015-Apr-27 06:33N 59°20' E 018°05'0 0.0
2015-Apr-27 05:33N 59°20' E 018°05'0 0.0
2015-Apr-27 04:33N 59°20' E 018°05'0 0.0
2015-Apr-27 03:33N 59°20' E 018°05'0 0.0
2015-Apr-27 02:33N 59°20' E 018°05'0 0.0
2015-Apr-27 01:33N 59°20' E 018°05'0 0.0
2015-Apr-27 00:33N 59°20' E 018°05'0 0.0
2015-Apr-26 23:33N 59°20' E 018°05'0 0.0
2015-Apr-26 22:33N 59°20' E 018°05'0 0.0
2015-Apr-26 21:33N 59°20' E 018°05'0 0.0
2015-Apr-26 20:33N 59°20' E 018°05'0 0.0
2015-Apr-26 19:33N 59°20' E 018°05'0 0.0
2015-Apr-26 18:33N 59°20' E 018°05'0 0.0
2015-Apr-26 17:33N 59°20' E 018°05'  

Dump ship's entire track history